sensor_id;sensor_type;location;lat;lon;timestamp;pressure;altitude;pressure_sealevel;temperature;humidity
7524;BME280;3803;51.666;7.630;2023-02-25T00:00:18;99919.44;;;6.02;61.81
7524;BME280;3803;51.666;7.630;2023-02-25T00:00:39;99926.50;;;6.07;61.24
7524;BME280;3803;51.666;7.630;2023-02-25T00:01:04;99911.78;;;6.06;61.90
7524;BME280;3803;51.666;7.630;2023-02-25T00:01:28;99930.25;;;6.16;61.85
7524;BME280;3803;51.666;7.630;2023-02-25T00:01:48;99923.28;;;6.14;62.03
7524;BME280;3803;51.666;7.630;2023-02-25T00:02:09;99922.31;;;6.10;61.41
7524;BME280;3803;51.666;7.630;2023-02-25T00:02:30;99912.59;;;6.05;61.65
7524;BME280;3803;51.666;7.630;2023-02-25T00:02:51;99910.84;;;6.03;61.63
7524;BME280;3803;51.666;7.630;2023-02-25T00:03:12;99908.94;;;5.98;61.61
7524;BME280;3803;51.666;7.630;2023-02-25T00:03:35;99925.41;;;6.00;61.98
7524;BME280;3803;51.666;7.630;2023-02-25T00:03:56;99910.75;;;6.00;61.98
7524;BME280;3803;51.666;7.630;2023-02-25T00:04:16;99908.41;;;6.08;61.72
7524;BME280;3803;51.666;7.630;2023-02-25T00:04:37;99914.38;;;6.06;61.86
7524;BME280;3803;51.666;7.630;2023-02-25T00:05:12;99904.69;;;6.00;61.54
7524;BME280;3803;51.666;7.630;2023-02-25T00:05:37;99909.22;;;6.06;61.53
7524;BME280;3803;51.666;7.630;2023-02-25T00:06:00;99923.13;;;6.09;61.79
7524;BME280;3803;51.666;7.630;2023-02-25T00:06:21;99921.31;;;6.07;61.69
7524;BME280;3803;51.666;7.630;2023-02-25T00:06:42;99907.25;;;5.98;61.92
7524;BME280;3803;51.666;7.630;2023-02-25T00:07:03;99905.56;;;6.00;62.01
7524;BME280;3803;51.666;7.630;2023-02-25T00:07:23;99909.84;;;6.00;61.73
7524;BME280;3803;51.666;7.630;2023-02-25T00:07:48;99916.97;;;6.06;61.65
7524;BME280;3803;51.666;7.630;2023-02-25T00:08:09;99916.13;;;6.07;61.77
7524;BME280;3803;51.666;7.630;2023-02-25T00:08:30;99919.66;;;6.09;61.92
7524;BME280;3803;51.666;7.630;2023-02-25T00:08:51;99917.97;;;6.09;61.52
7524;BME280;3803;51.666;7.630;2023-02-25T00:09:12;99913.41;;;6.02;61.97
7524;BME280;3803;51.666;7.630;2023-02-25T00:09:32;99920.44;;;6.06;61.72
7524;BME280;3803;51.666;7.630;2023-02-25T00:09:56;99908.31;;;6.05;61.89
7524;BME280;3803;51.666;7.630;2023-02-25T00:10:16;99913.56;;;6.08;61.60
7524;BME280;3803;51.666;7.630;2023-02-25T00:10:37;99920.53;;;6.09;62.01
7524;BME280;3803;51.666;7.630;2023-02-25T00:10:59;99918.09;;;6.14;61.57
7524;BME280;3803;51.666;7.630;2023-02-25T00:11:22;99898.84;;;6.06;61.43
7524;BME280;3803;51.666;7.630;2023-02-25T00:11:43;99917.22;;;6.13;61.42
7524;BME280;3803;51.666;7.630;2023-02-25T00:12:04;99914.47;;;6.09;61.80
7524;BME280;3803;51.666;7.630;2023-02-25T00:12:27;99903.06;;;6.03;61.47
7524;BME280;3803;51.666;7.630;2023-02-25T00:12:48;99917.13;;;6.10;61.55
7524;BME280;3803;51.666;7.630;2023-02-25T00:13:08;99910.97;;;6.07;61.23
7524;BME280;3803;51.666;7.630;2023-02-25T00:13:30;99917.97;;;6.11;61.55
7524;BME280;3803;51.666;7.630;2023-02-25T00:13:51;99928.56;;;6.17;61.36
7524;BME280;3803;51.666;7.630;2023-02-25T00:14:11;99912.72;;;6.08;61.45
7524;BME280;3803;51.666;7.630;2023-02-25T00:14:32;99908.31;;;6.05;61.57
7524;BME280;3803;51.666;7.630;2023-02-25T00:14:52;99909.84;;;6.00;61.60
7524;BME280;3803;51.666;7.630;2023-02-25T00:15:13;99918.75;;;6.08;61.88
7524;BME280;3803;51.666;7.630;2023-02-25T00:15:34;99924.06;;;6.11;61.83
7524;BME280;3803;51.666;7.630;2023-02-25T00:15:54;99921.41;;;6.10;61.52
7524;BME280;3803;51.666;7.630;2023-02-25T00:16:19;99916.22;;;6.10;61.67
7524;BME280;3803;51.666;7.630;2023-02-25T00:16:40;99907.38;;;6.03;61.42
7524;BME280;3803;51.666;7.630;2023-02-25T00:17:00;99901.22;;;5.99;61.68
7524;BME280;3803;51.666;7.630;2023-02-25T00:17:22;99929.25;;;6.11;61.57
7524;BME280;3803;51.666;7.630;2023-02-25T00:17:43;99910.75;;;6.00;61.78
7524;BME280;3803;51.666;7.630;2023-02-25T00:18:03;99898.84;;;6.06;61.62
7524;BME280;3803;51.666;7.630;2023-02-25T00:18:25;99916.22;;;6.10;61.86
7524;BME280;3803;51.666;7.630;2023-02-25T00:18:46;99912.66;;;6.06;61.71
7524;BME280;3803;51.666;7.630;2023-02-25T00:19:06;99912.81;;;6.11;61.56
7524;BME280;3803;51.666;7.630;2023-02-25T00:19:27;99928.47;;;6.14;61.62
7524;BME280;3803;51.666;7.630;2023-02-25T00:19:48;99926.88;;;6.19;61.58
7524;BME280;3803;51.666;7.630;2023-02-25T00:20:09;99924.00;;;6.10;61.28
7524;BME280;3803;51.666;7.630;2023-02-25T00:20:32;99909.22;;;6.07;61.73
7524;BME280;3803;51.666;7.630;2023-02-25T00:20:53;99913.72;;;6.13;61.49
7524;BME280;3803;51.666;7.630;2023-02-25T00:21:15;99925.25;;;6.21;61.37
7524;BME280;3803;51.666;7.630;2023-02-25T00:21:36;99924.25;;;6.18;61.37
7524;BME280;3803;51.666;7.630;2023-02-25T00:21:57;99922.59;;;6.20;61.16
7524;BME280;3803;51.666;7.630;2023-02-25T00:22:17;99915.38;;;6.09;61.76
7524;BME280;3803;51.666;7.630;2023-02-25T00:22:38;99918.13;;;6.15;61.45
7524;BME280;3803;51.666;7.630;2023-02-25T00:23:00;99916.53;;;6.19;61.40
7524;BME280;3803;51.666;7.630;2023-02-25T00:23:20;99912.91;;;6.14;61.04
7524;BME280;3803;51.666;7.630;2023-02-25T00:23:42;99926.09;;;6.22;61.59
7524;BME280;3803;51.666;7.630;2023-02-25T00:24:03;99927.00;;;6.22;61.15
7524;BME280;3803;51.666;7.630;2023-02-25T00:24:24;99909.44;;;6.13;61.37
7524;BME280;3803;51.666;7.630;2023-02-25T00:24:44;99904.09;;;6.09;61.49
7524;BME280;3803;51.666;7.630;2023-02-25T00:25:06;99915.66;;;6.19;61.16
7524;BME280;3803;51.666;7.630;2023-02-25T00:25:28;99919.09;;;6.19;61.22
7524;BME280;3803;51.666;7.630;2023-02-25T00:25:48;99928.75;;;6.23;61.19
7524;BME280;3803;51.666;7.630;2023-02-25T00:26:09;99916.72;;;6.25;61.08
7524;BME280;3803;51.666;7.630;2023-02-25T00:26:31;99911.19;;;6.14;61.38
7524;BME280;3803;51.666;7.630;2023-02-25T00:26:51;99914.69;;;6.16;61.21
7524;BME280;3803;51.666;7.630;2023-02-25T00:27:12;99913.72;;;6.13;61.45
7524;BME280;3803;51.666;7.630;2023-02-25T00:27:32;99921.41;;;6.10;61.22
7524;BME280;3803;51.666;7.630;2023-02-25T00:27:56;99917.22;;;6.13;61.62
7524;BME280;3803;51.666;7.630;2023-02-25T00:28:17;99914.69;;;6.15;61.22
7524;BME280;3803;51.666;7.630;2023-02-25T00:28:38;99912.91;;;6.14;61.57
7524;BME280;3803;51.666;7.630;2023-02-25T00:28:59;99920.78;;;6.17;61.51
7524;BME280;3803;51.666;7.630;2023-02-25T00:29:20;99913.09;;;6.20;61.31
7524;BME280;3803;51.666;7.630;2023-02-25T00:29:41;99912.91;;;6.14;61.31
7524;BME280;3803;51.666;7.630;2023-02-25T00:30:03;99914.56;;;6.12;61.32
7524;BME280;3803;51.666;7.630;2023-02-25T00:30:24;99918.03;;;6.12;61.49
7524;BME280;3803;51.666;7.630;2023-02-25T00:30:46;99917.22;;;6.13;61.31
7524;BME280;3803;51.666;7.630;2023-02-25T00:31:13;99920.72;;;6.15;61.29
7524;BME280;3803;51.666;7.630;2023-02-25T00:31:34;99915.53;;;6.15;61.11
7524;BME280;3803;51.666;7.630;2023-02-25T00:31:55;99920.69;;;6.14;60.91
7524;BME280;3803;51.666;7.630;2023-02-25T00:32:16;99917.97;;;6.11;61.06
7524;BME280;3803;51.666;7.630;2023-02-25T00:32:37;99917.97;;;6.11;61.54
7524;BME280;3803;51.666;7.630;2023-02-25T00:32:58;99908.47;;;6.10;61.32
7524;BME280;3803;51.666;7.630;2023-02-25T00:33:19;99908.50;;;6.11;61.22
7524;BME280;3803;51.666;7.630;2023-02-25T00:33:40;99903.34;;;6.11;61.11
7524;BME280;3803;51.666;7.630;2023-02-25T00:34:03;99913.84;;;6.16;61.22
7524;BME280;3803;51.666;7.630;2023-02-25T00:34:25;99897.25;;;6.11;61.08
7524;BME280;3803;51.666;7.630;2023-02-25T00:34:49;99908.41;;;6.08;61.19
7524;BME280;3803;51.666;7.630;2023-02-25T00:35:11;99923.22;;;6.12;61.71
7524;BME280;3803;51.666;7.630;2023-02-25T00:35:32;99899.81;;;6.09;61.27
7524;BME280;3803;51.666;7.630;2023-02-25T00:35:53;99911.19;;;6.14;61.23
7524;BME280;3803;51.666;7.630;2023-02-25T00:36:20;99903.19;;;6.07;61.42
7524;BME280;3803;51.666;7.630;2023-02-25T00:36:42;99915.53;;;6.15;61.24
7524;BME280;3803;51.666;7.630;2023-02-25T00:37:03;99917.13;;;6.10;61.04
7524;BME280;3803;51.666;7.630;2023-02-25T00:37:24;99912.78;;;6.09;60.94
7524;BME280;3803;51.666;7.630;2023-02-25T00:37:45;99908.31;;;6.05;61.19
7524;BME280;3803;51.666;7.630;2023-02-25T00:38:07;99905.63;;;6.02;61.00
7524;BME280;3803;51.666;7.630;2023-02-25T00:38:27;99913.56;;;6.07;60.97
7524;BME280;3803;51.666;7.630;2023-02-25T00:38:50;99915.41;;;6.11;61.08
7524;BME280;3803;51.666;7.630;2023-02-25T00:39:11;99909.22;;;6.06;61.24
7524;BME280;3803;51.666;7.630;2023-02-25T00:39:32;99910.00;;;6.05;61.18
7524;BME280;3803;51.666;7.630;2023-02-25T00:40:01;99912.03;;;6.13;61.09
7524;BME280;3803;51.666;7.630;2023-02-25T00:40:23;99910.00;;;6.05;61.32
7524;BME280;3803;51.666;7.630;2023-02-25T00:40:43;99910.97;;;6.07;61.27
7524;BME280;3803;51.666;7.630;2023-02-25T00:41:08;99918.09;;;6.14;60.85
7524;BME280;3803;51.666;7.630;2023-02-25T00:41:32;99915.19;;;6.05;61.22
7524;BME280;3803;51.666;7.630;2023-02-25T00:41:53;99908.50;;;6.11;60.83
7524;BME280;3803;51.666;7.630;2023-02-25T00:42:15;99914.56;;;6.12;60.86
7524;BME280;3803;51.666;7.630;2023-02-25T00:42:36;99914.63;;;6.13;60.86
7524;BME280;3803;51.666;7.630;2023-02-25T00:42:57;99906.78;;;6.12;60.82
7524;BME280;3803;51.666;7.630;2023-02-25T00:43:18;99906.84;;;6.13;61.00
7524;BME280;3803;51.666;7.630;2023-02-25T00:43:41;99912.91;;;6.14;61.02
7524;BME280;3803;51.666;7.630;2023-02-25T00:44:03;99914.25;;;6.02;60.97
7524;BME280;3803;51.666;7.630;2023-02-25T00:44:25;99920.47;;;6.08;60.93
7524;BME280;3803;51.666;7.630;2023-02-25T00:44:47;99919.75;;;6.12;60.75
7524;BME280;3803;51.666;7.630;2023-02-25T00:45:09;99910.84;;;6.03;60.98
7524;BME280;3803;51.666;7.630;2023-02-25T00:45:29;99913.50;;;6.05;60.66
7524;BME280;3803;51.666;7.630;2023-02-25T00:45:51;99923.06;;;6.08;61.22
7524;BME280;3803;51.666;7.630;2023-02-25T00:46:11;99920.22;;;6.00;61.08
7524;BME280;3803;51.666;7.630;2023-02-25T00:46:33;99909.84;;;5.98;61.08
7524;BME280;3803;51.666;7.630;2023-02-25T00:46:53;99925.66;;;6.08;61.05
7524;BME280;3803;51.666;7.630;2023-02-25T00:47:16;99907.25;;;5.98;60.95
7524;BME280;3803;51.666;7.630;2023-02-25T00:47:38;99907.31;;;6.01;60.74
7524;BME280;3803;51.666;7.630;2023-02-25T00:47:59;99915.19;;;6.05;60.90
7524;BME280;3803;51.666;7.630;2023-02-25T00:48:19;99900.38;;;6.00;60.79
7524;BME280;3803;51.666;7.630;2023-02-25T00:48:41;99902.94;;;5.99;60.74
7524;BME280;3803;51.666;7.630;2023-02-25T00:49:11;99919.44;;;6.02;61.32
7524;BME280;3803;51.666;7.630;2023-02-25T00:49:32;99913.41;;;6.02;60.83
7524;BME280;3803;51.666;7.630;2023-02-25T00:49:53;99912.59;;;6.05;60.80
7524;BME280;3803;51.666;7.630;2023-02-25T00:50:13;99915.03;;;6.00;60.56
7524;BME280;3803;51.666;7.630;2023-02-25T00:50:34;99906.44;;;6.01;60.77
7524;BME280;3803;51.666;7.630;2023-02-25T00:50:55;99916.78;;;5.99;60.90
7524;BME280;3803;51.666;7.630;2023-02-25T00:51:20;99919.75;;;6.12;61.24
7524;BME280;3803;51.666;7.630;2023-02-25T00:51:43;99920.53;;;6.09;61.36
7524;BME280;3803;51.666;7.630;2023-02-25T00:52:04;99916.03;;;6.03;61.01
7524;BME280;3803;51.666;7.630;2023-02-25T00:52:25;99918.81;;;6.10;60.77
7524;BME280;3803;51.666;7.630;2023-02-25T00:52:46;99917.91;;;6.08;60.89
7524;BME280;3803;51.666;7.630;2023-02-25T00:53:06;99922.03;;;6.02;60.93
7524;BME280;3803;51.666;7.630;2023-02-25T00:53:27;99923.75;;;6.02;61.09
7524;BME280;3803;51.666;7.630;2023-02-25T00:53:47;99929.09;;;6.07;61.00
7524;BME280;3803;51.666;7.630;2023-02-25T00:54:08;99924.75;;;6.06;61.24
7524;BME280;3803;51.666;7.630;2023-02-25T00:54:29;99922.94;;;6.03;61.07
7524;BME280;3803;51.666;7.630;2023-02-25T00:54:49;99938.81;;;6.14;61.13
7524;BME280;3803;51.666;7.630;2023-02-25T00:55:10;99923.00;;;6.06;60.88
7524;BME280;3803;51.666;7.630;2023-02-25T00:55:31;99935.09;;;6.06;60.67
7524;BME280;3803;51.666;7.630;2023-02-25T00:56:00;99944.78;;;6.11;60.80
7524;BME280;3803;51.666;7.630;2023-02-25T00:56:22;99923.84;;;6.05;61.25
7524;BME280;3803;51.666;7.630;2023-02-25T00:56:43;99924.06;;;6.11;61.03
7524;BME280;3803;51.666;7.630;2023-02-25T00:57:04;99930.84;;;6.08;60.90
7524;BME280;3803;51.666;7.630;2023-02-25T00:57:25;99932.81;;;6.15;60.61
7524;BME280;3803;51.666;7.630;2023-02-25T00:57:46;99935.28;;;6.12;60.94
7524;BME280;3803;51.666;7.630;2023-02-25T00:58:06;99927.28;;;6.04;60.80
7524;BME280;3803;51.666;7.630;2023-02-25T00:58:27;99932.75;;;6.13;60.84
7524;BME280;3803;51.666;7.630;2023-02-25T00:58:49;99926.38;;;6.03;60.71
7524;BME280;3803;51.666;7.630;2023-02-25T00:59:10;99925.59;;;6.06;61.00
7524;BME280;3803;51.666;7.630;2023-02-25T00:59:31;99923.84;;;6.05;61.14
7524;BME280;3803;51.666;7.630;2023-02-25T00:59:52;99927.78;;;6.20;60.88
7524;BME280;3803;51.666;7.630;2023-02-25T01:00:13;99924.91;;;6.12;60.31
7524;BME280;3803;51.666;7.630;2023-02-25T01:00:36;99915.25;;;6.06;60.31
7524;BME280;3803;51.666;7.630;2023-02-25T01:00:57;99919.66;;;6.09;60.75
7524;BME280;3803;51.666;7.630;2023-02-25T01:01:27;99929.31;;;6.14;60.72
7524;BME280;3803;51.666;7.630;2023-02-25T01:01:49;99927.47;;;6.10;60.54
7524;BME280;3803;51.666;7.630;2023-02-25T01:02:11;99940.59;;;6.15;60.44
7524;BME280;3803;51.666;7.630;2023-02-25T01:02:31;99930.84;;;6.08;60.68
7524;BME280;3803;51.666;7.630;2023-02-25T01:02:55;99930.16;;;6.13;60.54
7524;BME280;3803;51.666;7.630;2023-02-25T01:03:16;99923.94;;;6.08;60.44
7524;BME280;3803;51.666;7.630;2023-02-25T01:03:47;99923.16;;;6.11;60.85
7524;BME280;3803;51.666;7.630;2023-02-25T01:04:09;99923.28;;;6.14;60.43
7524;BME280;3803;51.666;7.630;2023-02-25T01:04:31;99932.06;;;6.19;60.68
7524;BME280;3803;51.666;7.630;2023-02-25T01:04:52;99929.38;;;6.16;60.22
7524;BME280;3803;51.666;7.630;2023-02-25T01:05:14;99935.44;;;6.16;60.39
7524;BME280;3803;51.666;7.630;2023-02-25T01:05:40;99922.69;;;6.23;60.68
7524;BME280;3803;51.666;7.630;2023-02-25T01:06:01;99923.16;;;6.11;60.61
7524;BME280;3803;51.666;7.630;2023-02-25T01:06:23;99924.28;;;6.19;60.41
7524;BME280;3803;51.666;7.630;2023-02-25T01:06:44;99936.72;;;6.29;60.51
7524;BME280;3803;51.666;7.630;2023-02-25T01:07:05;99921.69;;;6.18;60.51
7524;BME280;3803;51.666;7.630;2023-02-25T01:07:26;99933.00;;;6.21;60.22
7524;BME280;3803;51.666;7.630;2023-02-25T01:07:47;99927.72;;;6.18;60.30
7524;BME280;3803;51.666;7.630;2023-02-25T01:08:08;99932.19;;;6.22;60.07
7524;BME280;3803;51.666;7.630;2023-02-25T01:08:30;99923.38;;;6.17;60.57
7524;BME280;3803;51.666;7.630;2023-02-25T01:08:51;99934.78;;;6.24;60.51
7524;BME280;3803;51.666;7.630;2023-02-25T01:09:12;99928.56;;;6.17;60.24
7524;BME280;3803;51.666;7.630;2023-02-25T01:09:36;99935.41;;;6.15;60.23
7524;BME280;3803;51.666;7.630;2023-02-25T01:09:56;99937.09;;;6.14;60.89
7524;BME280;3803;51.666;7.630;2023-02-25T01:10:17;99923.38;;;6.17;60.48
7524;BME280;3803;51.666;7.630;2023-02-25T01:10:38;99918.88;;;6.11;60.43
7524;BME280;3803;51.666;7.630;2023-02-25T01:10:58;99927.66;;;6.16;60.50
7524;BME280;3803;51.666;7.630;2023-02-25T01:11:22;99924.75;;;6.06;60.69
7524;BME280;3803;51.666;7.630;2023-02-25T01:11:48;99926.72;;;6.14;60.65
7524;BME280;3803;51.666;7.630;2023-02-25T01:12:09;99916.22;;;6.10;60.63
7524;BME280;3803;51.666;7.630;2023-02-25T01:12:30;99934.63;;;6.18;60.52
7524;BME280;3803;51.666;7.630;2023-02-25T01:12:50;99923.16;;;6.11;60.65
7524;BME280;3803;51.666;7.630;2023-02-25T01:13:11;99924.91;;;6.12;60.76
7524;BME280;3803;51.666;7.630;2023-02-25T01:13:32;99919.88;;;6.16;60.50
7524;BME280;3803;51.666;7.630;2023-02-25T01:13:54;99924.09;;;6.13;60.38
7524;BME280;3803;51.666;7.630;2023-02-25T01:14:22;99936.53;;;6.23;60.16
7524;BME280;3803;51.666;7.630;2023-02-25T01:14:43;99927.56;;;6.13;60.50
7524;BME280;3803;51.666;7.630;2023-02-25T01:15:04;99917.97;;;6.11;60.11
7524;BME280;3803;51.666;7.630;2023-02-25T01:15:29;99914.56;;;6.12;60.38
7524;BME280;3803;51.666;7.630;2023-02-25T01:15:50;99921.50;;;6.13;60.10
7524;BME280;3803;51.666;7.630;2023-02-25T01:16:15;99930.22;;;6.15;60.14
7524;BME280;3803;51.666;7.630;2023-02-25T01:16:36;99928.56;;;6.17;60.56
7524;BME280;3803;51.666;7.630;2023-02-25T01:16:58;99925.25;;;6.21;60.19
7524;BME280;3803;51.666;7.630;2023-02-25T01:17:21;99929.59;;;6.22;60.30
7524;BME280;3803;51.666;7.630;2023-02-25T01:17:42;99920.84;;;6.19;60.00
7524;BME280;3803;51.666;7.630;2023-02-25T01:18:03;99924.41;;;6.22;60.42
7524;BME280;3803;51.666;7.630;2023-02-25T01:18:23;99931.38;;;6.25;60.35
7524;BME280;3803;51.666;7.630;2023-02-25T01:18:44;99932.25;;;6.25;60.13
7524;BME280;3803;51.666;7.630;2023-02-25T01:19:13;99929.63;;;6.24;60.46
7524;BME280;3803;51.666;7.630;2023-02-25T01:19:34;99923.47;;;6.20;60.50
7524;BME280;3803;51.666;7.630;2023-02-25T01:19:55;99923.47;;;6.20;60.32
7524;BME280;3803;51.666;7.630;2023-02-25T01:20:17;99924.28;;;6.19;60.14
7524;BME280;3803;51.666;7.630;2023-02-25T01:20:39;99939.41;;;6.33;60.04
7524;BME280;3803;51.666;7.630;2023-02-25T01:21:00;99926.78;;;6.16;60.33
7524;BME280;3803;51.666;7.630;2023-02-25T01:21:23;99926.78;;;6.16;60.60
7524;BME280;3803;51.666;7.630;2023-02-25T01:21:46;99947.88;;;6.27;60.20
7524;BME280;3803;51.666;7.630;2023-02-25T01:22:07;99937.44;;;6.25;60.70
7524;BME280;3803;51.666;7.630;2023-02-25T01:22:28;99927.78;;;6.20;60.67
7524;BME280;3803;51.666;7.630;2023-02-25T01:22:48;99932.25;;;6.25;60.29
7524;BME280;3803;51.666;7.630;2023-02-25T01:23:09;99933.00;;;6.21;60.49
7524;BME280;3803;51.666;7.630;2023-02-25T01:23:30;99936.53;;;6.23;60.21
7524;BME280;3803;51.666;7.630;2023-02-25T01:23:54;99934.84;;;6.25;60.38
7524;BME280;3803;51.666;7.630;2023-02-25T01:24:20;99942.91;;;6.35;60.26
7524;BME280;3803;51.666;7.630;2023-02-25T01:24:40;99929.75;;;6.28;60.17
7524;BME280;3803;51.666;7.630;2023-02-25T01:25:01;99929.47;;;6.19;60.34
7524;BME280;3803;51.666;7.630;2023-02-25T01:25:22;99928.63;;;6.20;60.09
7524;BME280;3803;51.666;7.630;2023-02-25T01:25:44;99914.00;;;6.21;60.14
7524;BME280;3803;51.666;7.630;2023-02-25T01:26:05;99935.63;;;6.23;59.99
7524;BME280;3803;51.666;7.630;2023-02-25T01:26:28;99922.78;;;6.26;60.23
7524;BME280;3803;51.666;7.630;2023-02-25T01:26:52;99935.91;;;6.30;60.06
7524;BME280;3803;51.666;7.630;2023-02-25T01:27:13;99930.44;;;6.21;60.31
7524;BME280;3803;51.666;7.630;2023-02-25T01:27:35;99928.91;;;6.28;59.93
7524;BME280;3803;51.666;7.630;2023-02-25T01:27:56;99926.31;;;6.28;60.05
7524;BME280;3803;51.666;7.630;2023-02-25T01:28:17;99937.66;;;6.32;59.94
7524;BME280;3803;51.666;7.630;2023-02-25T01:28:38;99933.94;;;6.23;60.09
7524;BME280;3803;51.666;7.630;2023-02-25T01:28:58;99924.44;;;6.24;60.33
7524;BME280;3803;51.666;7.630;2023-02-25T01:29:28;99929.63;;;6.24;59.74
7524;BME280;3803;51.666;7.630;2023-02-25T01:29:49;99920.06;;;6.21;60.17
7524;BME280;3803;51.666;7.630;2023-02-25T01:30:10;99935.78;;;6.27;60.04
7524;BME280;3803;51.666;7.630;2023-02-25T01:30:34;99922.47;;;6.16;60.50
7524;BME280;3803;51.666;7.630;2023-02-25T01:30:54;99934.84;;;6.25;59.88
7524;BME280;3803;51.666;7.630;2023-02-25T01:31:17;99924.16;;;6.14;60.47
7524;BME280;3803;51.666;7.630;2023-02-25T01:31:40;99929.31;;;6.14;60.44
7524;BME280;3803;51.666;7.630;2023-02-25T01:32:02;99929.38;;;6.16;60.34
7524;BME280;3803;51.666;7.630;2023-02-25T01:32:24;99936.47;;;6.22;59.98
7524;BME280;3803;51.666;7.630;2023-02-25T01:32:44;99928.47;;;6.14;60.30
7524;BME280;3803;51.666;7.630;2023-02-25T01:33:05;99938.91;;;6.17;60.04
7524;BME280;3803;51.666;7.630;2023-02-25T01:33:25;99924.16;;;6.14;60.41
7524;BME280;3803;51.666;7.630;2023-02-25T01:33:46;99928.34;;;6.11;60.50
7524;BME280;3803;51.666;7.630;2023-02-25T01:34:11;99921.41;;;6.10;60.40
7524;BME280;3803;51.666;7.630;2023-02-25T01:34:34;99928.56;;;6.17;60.49
7524;BME280;3803;51.666;7.630;2023-02-25T01:34:56;99922.25;;;6.09;60.44
7524;BME280;3803;51.666;7.630;2023-02-25T01:35:17;99926.59;;;6.10;60.56
7524;BME280;3803;51.666;7.630;2023-02-25T01:35:37;99923.06;;;6.08;60.65
7524;BME280;3803;51.666;7.630;2023-02-25T01:36:00;99922.09;;;6.04;60.20
7524;BME280;3803;51.666;7.630;2023-02-25T01:36:21;99923.06;;;6.08;60.53
7524;BME280;3803;51.666;7.630;2023-02-25T01:36:42;99907.41;;;6.05;60.76
7524;BME280;3803;51.666;7.630;2023-02-25T01:37:03;99906.25;;;5.95;60.73
7524;BME280;3803;51.666;7.630;2023-02-25T01:37:24;99914.19;;;5.99;60.33
7524;BME280;3803;51.666;7.630;2023-02-25T01:37:44;99917.91;;;6.08;60.45
7524;BME280;3803;51.666;7.630;2023-02-25T01:38:07;99913.56;;;6.07;60.59
7524;BME280;3803;51.666;7.630;2023-02-25T01:38:28;99930.22;;;6.15;60.57
7524;BME280;3803;51.666;7.630;2023-02-25T01:38:49;99923.06;;;6.08;60.39
7524;BME280;3803;51.666;7.630;2023-02-25T01:39:11;99916.22;;;6.10;60.47
7524;BME280;3803;51.666;7.630;2023-02-25T01:39:33;99918.81;;;6.10;60.40
7524;BME280;3803;51.666;7.630;2023-02-25T01:39:53;99923.06;;;6.08;60.88
7524;BME280;3803;51.666;7.630;2023-02-25T01:40:19;99924.84;;;6.09;60.57
7524;BME280;3803;51.666;7.630;2023-02-25T01:40:40;99918.72;;;6.07;60.57
7524;BME280;3803;51.666;7.630;2023-02-25T01:41:01;99922.97;;;6.05;60.82
7524;BME280;3803;51.666;7.630;2023-02-25T01:41:23;99924.75;;;6.06;60.92
7524;BME280;3803;51.666;7.630;2023-02-25T01:41:44;99930.22;;;6.15;60.95
7524;BME280;3803;51.666;7.630;2023-02-25T01:42:15;99931.69;;;6.07;60.87
7524;BME280;3803;51.666;7.630;2023-02-25T01:42:36;99906.50;;;6.02;60.95
7524;BME280;3803;51.666;7.630;2023-02-25T01:42:56;99917.59;;;5.98;60.56
7524;BME280;3803;51.666;7.630;2023-02-25T01:43:17;99913.19;;;5.96;60.60
7524;BME280;3803;51.666;7.630;2023-02-25T01:43:39;99915.84;;;5.97;60.91
7524;BME280;3803;51.666;7.630;2023-02-25T01:44:31;99928.13;;;6.05;60.74
7524;BME280;3803;51.666;7.630;2023-02-25T01:45:41;99932.25;;;5.98;61.30
7524;BME280;3803;51.666;7.630;2023-02-25T01:46:02;99917.44;;;5.94;60.98
7524;BME280;3803;51.666;7.630;2023-02-25T01:46:23;99917.47;;;5.95;61.20
7524;BME280;3803;51.666;7.630;2023-02-25T01:46:46;99932.25;;;5.98;61.03
7524;BME280;3803;51.666;7.630;2023-02-25T01:47:18;99915.88;;;5.99;61.39
7524;BME280;3803;51.666;7.630;2023-02-25T01:47:40;99927.16;;;6.01;61.09
7524;BME280;3803;51.666;7.630;2023-02-25T01:48:11;99932.31;;;5.99;61.18
7524;BME280;3803;51.666;7.630;2023-02-25T01:48:38;99927.06;;;5.98;61.35
7524;BME280;3803;51.666;7.630;2023-02-25T01:49:01;99942.03;;;6.07;61.23
7524;BME280;3803;51.666;7.630;2023-02-25T01:49:35;99921.94;;;5.99;61.33
7524;BME280;3803;51.666;7.630;2023-02-25T01:49:58;99920.03;;;5.94;61.41
7524;BME280;3803;51.666;7.630;2023-02-25T01:50:21;99927.97;;;5.98;61.31
7524;BME280;3803;51.666;7.630;2023-02-25T01:50:49;99929.59;;;5.96;61.49
7524;BME280;3803;51.666;7.630;2023-02-25T01:51:11;99924.63;;;6.02;61.19
7524;BME280;3803;51.666;7.630;2023-02-25T01:51:35;99926.44;;;6.05;61.31
7524;BME280;3803;51.666;7.630;2023-02-25T01:52:18;99938.72;;;6.11;61.29
7524;BME280;3803;51.666;7.630;2023-02-25T01:52:40;99916.84;;;6.02;61.25
7524;BME280;3803;51.666;7.630;2023-02-25T01:53:02;99925.59;;;6.06;61.23
7524;BME280;3803;51.666;7.630;2023-02-25T01:53:37;99924.75;;;6.06;60.95
7524;BME280;3803;51.666;7.630;2023-02-25T01:53:59;99927.16;;;6.01;60.74
7524;BME280;3803;51.666;7.630;2023-02-25T01:54:22;99924.63;;;6.02;60.97
7524;BME280;3803;51.666;7.630;2023-02-25T01:54:44;99921.19;;;6.03;60.90
7524;BME280;3803;51.666;7.630;2023-02-25T01:55:09;99926.50;;;6.07;61.09
7524;BME280;3803;51.666;7.630;2023-02-25T01:55:31;99923.63;;;5.99;61.25
7524;BME280;3803;51.666;7.630;2023-02-25T01:55:52;99934.97;;;6.02;61.12
7524;BME280;3803;51.666;7.630;2023-02-25T01:56:16;99948.06;;;6.06;61.54
7524;BME280;3803;51.666;7.630;2023-02-25T01:56:40;99936.66;;;6.00;61.38
7524;BME280;3803;51.666;7.630;2023-02-25T01:57:04;99922.66;;;5.95;61.43
7524;BME280;3803;51.666;7.630;2023-02-25T01:57:25;99926.38;;;6.03;61.14
7524;BME280;3803;51.666;7.630;2023-02-25T01:57:46;99923.69;;;6.00;61.44
7524;BME280;3803;51.666;7.630;2023-02-25T01:58:07;99915.72;;;5.94;61.21
7524;BME280;3803;51.666;7.630;2023-02-25T01:58:31;99939.31;;;6.02;61.21
7524;BME280;3803;51.666;7.630;2023-02-25T01:58:53;99934.97;;;6.02;61.11
7524;BME280;3803;51.666;7.630;2023-02-25T01:59:15;99908.88;;;5.96;61.17
7524;BME280;3803;51.666;7.630;2023-02-25T01:59:39;99926.19;;;5.97;61.05
7524;BME280;3803;51.666;7.630;2023-02-25T02:00:01;99928.78;;;5.97;61.24
7524;BME280;3803;51.666;7.630;2023-02-25T02:00:34;99923.41;;;5.91;61.04
7524;BME280;3803;51.666;7.630;2023-02-25T02:00:55;99922.78;;;5.98;61.57
7524;BME280;3803;51.666;7.630;2023-02-25T02:01:19;99932.44;;;6.04;61.13
7524;BME280;3803;51.666;7.630;2023-02-25T02:01:41;99926.38;;;6.03;61.39
7524;BME280;3803;51.666;7.630;2023-02-25T02:02:02;99937.72;;;6.07;61.19
7524;BME280;3803;51.666;7.630;2023-02-25T02:02:24;99918.31;;;5.94;61.24
7524;BME280;3803;51.666;7.630;2023-02-25T02:02:47;99925.22;;;5.94;61.25
7524;BME280;3803;51.666;7.630;2023-02-25T02:03:09;99933.22;;;6.01;61.21
7524;BME280;3803;51.666;7.630;2023-02-25T02:03:36;99931.69;;;6.07;61.36